Time;durP1;ratioP1;P1;durP2;ratioP2;P2;SDS_P1;SDS_P2;PMS_P1;PMS_P2;Temp;Humidity;BMP_temperature;BMP_pressure;BME280_temperature;BME280_humidity;BME280_pressure;Samples;Min_cycle;Max_cycle;Signal;HPM_P1;HPM_P2
2022/05/27 00:00:10;;;;;;;7.82;3.00;;;;;;;15.88;64.45;99334.38;8198825;29;20063;-72
2022/05/27 00:04:31;;;;;;;4.40;2.97;;;;;;;15.82;64.99;99334.94;8208763;28;20059;-72
2022/05/27 00:08:33;;;;;;;6.03;2.88;;;;;;;15.74;65.22;99338.56;8200902;28;20047;-71
2022/05/27 00:12:35;;;;;;;8.45;3.00;;;;;;;15.66;65.38;99342.16;8204838;28;20423;-73
2022/05/27 00:16:36;;;;;;;7.68;3.00;;;;;;;15.62;65.70;99331.94;8213996;28;20042;-73
2022/05/27 00:20:37;;;;;;;5.13;2.85;;;;;;;15.57;65.75;99329.44;8234557;28;20533;-72
2022/05/27 00:24:41;;;;;;;7.00;3.10;;;;;;;15.50;66.25;99318.25;8218209;28;20142;-72
2022/05/27 00:28:42;;;;;;;9.77;3.10;;;;;;;15.49;66.57;99318.63;8210021;28;20466;-73
2022/05/27 00:32:43;;;;;;;8.40;2.90;;;;;;;15.47;66.55;99316.22;8204855;28;20470;-72
2022/05/27 00:36:44;;;;;;;4.85;2.50;;;;;;;15.41;66.73;99303.97;8218029;28;20054;-72
2022/05/27 00:40:49;;;;;;;6.47;2.88;;;;;;;15.50;66.70;99301.94;8203837;28;20416;-71
2022/05/27 00:44:50;;;;;;;4.07;2.50;;;;;;;15.52;66.43;99298.91;8199952;28;20435;-72
2022/05/27 00:48:54;;;;;;;9.73;3.08;;;;;;;15.52;66.34;99288.81;8211400;28;20051;-72
2022/05/27 00:52:56;;;;;;;6.85;3.15;;;;;;;15.53;66.48;99284.97;8224870;28;20058;-72
2022/05/27 00:57:01;;;;;;;9.38;2.80;;;;;;;15.51;66.55;99281.78;8220533;28;20047;-72
2022/05/27 01:01:02;;;;;;;4.88;3.20;;;;;;;15.51;66.61;99275.50;8201735;29;20055;-73
2022/05/27 01:05:06;;;;;;;4.85;2.72;;;;;;;15.58;66.31;99279.31;8203012;28;20466;-72
2022/05/27 01:09:06;;;;;;;10.90;2.90;;;;;;;15.55;66.36;99277.25;8202881;28;20043;-73
2022/05/27 01:13:18;;;;;;;5.03;2.53;;;;;;;15.59;66.11;99267.31;8199072;28;20101;-72
2022/05/27 01:17:56;;;;;;;8.23;2.58;;;;;;;15.66;66.02;99260.47;8211575;28;20418;-73
2022/05/27 01:22:08;;;;;;;4.90;2.10;;;;;;;15.65;65.91;99264.38;8158483;28;20114;-72
2022/05/27 01:26:33;;;;;;;11.63;2.33;;;;;;;15.61;65.96;99254.13;8226174;28;20097;-72
2022/05/27 01:31:24;;;;;;;4.35;2.20;;;;;;;15.56;66.28;99257.06;8203855;28;20519;-72
2022/05/27 01:35:46;;;;;;;6.05;2.33;;;;;;;15.63;65.93;99243.72;8164087;29;20050;-72
2022/05/27 01:40:05;;;;;;;6.00;2.17;;;;;;;15.68;65.60;99236.44;8150281;29;20526;-72
2022/05/27 01:44:15;;;;;;;9.55;2.10;;;;;;;15.63;65.55;99230.09;8165768;29;20059;-72
2022/05/27 01:48:52;;;;;;;10.43;2.45;;;;;;;15.66;65.53;99222.38;8158058;29;20135;-72
2022/05/27 01:52:58;;;;;;;6.13;1.90;;;;;;;15.73;64.88;99211.72;8085578;29;20049;-71
2022/05/27 01:57:05;;;;;;;6.43;2.20;;;;;;;15.82;64.37;99204.22;8041705;29;20052;-72
2022/05/27 02:01:11;;;;;;;8.45;2.30;;;;;;;15.75;64.77;99201.28;8083306;29;20056;-72
2022/05/27 02:05:16;;;;;;;;;;;;;;;15.73;64.95;99200.84;8065960;29;20140;-72
2022/05/27 02:09:31;;;;;;;5.70;2.00;;;;;;;15.71;64.84;99197.63;8081207;29;20369;-72
2022/05/27 02:14:06;;;;;;;4.90;2.20;;;;;;;15.69;64.98;99194.47;8097345;29;20550;-72
2022/05/27 02:18:14;;;;;;;4.50;2.03;;;;;;;15.69;64.85;99194.47;8057072;29;20051;-71
2022/05/27 02:22:37;;;;;;;4.80;1.90;;;;;;;15.72;64.49;99188.34;8070906;29;20525;-71
2022/05/27 02:26:43;;;;;;;2.58;1.70;;;;;;;15.66;64.79;99181.53;8087103;29;20132;-71
2022/05/27 02:30:47;;;;;;;5.20;2.20;;;;;;;15.80;64.27;99179.28;8157653;29;20043;-72
2022/05/27 02:35:10;;;;;;;9.13;2.20;;;;;;;15.75;64.42;99174.06;8227240;28;20051;-72
2022/05/27 02:39:11;;;;;;;2.42;1.60;;;;;;;15.70;64.94;99168.84;8210142;28;20047;-72
2022/05/27 02:43:22;;;;;;;5.53;1.80;;;;;;;15.72;64.65;99166.56;8203880;28;20047;-72
2022/05/27 02:47:29;;;;;;;5.82;2.13;;;;;;;15.68;64.80;99160.22;8201820;28;20043;-72
2022/05/27 02:51:46;;;;;;;4.30;1.70;;;;;;;15.67;64.97;99153.19;8200684;28;20389;-72
2022/05/27 02:56:16;;;;;;;6.18;1.95;;;;;;;15.73;64.69;99151.81;8230652;28;20458;-73
2022/05/27 03:00:24;;;;;;;4.90;1.92;;;;;;;15.74;64.47;99145.25;8205016;28;20053;-72
2022/05/27 03:04:25;;;;;;;6.63;1.70;;;;;;;15.70;64.69;99141.63;8231780;28;20055;-72
2022/05/27 03:08:40;;;;;;;4.38;1.83;;;;;;;15.73;64.33;99140.94;8231995;28;20152;-72
2022/05/27 03:12:53;;;;;;;5.68;1.55;;;;;;;15.74;64.51;99147.97;8214225;28;20065;-72
2022/05/27 03:17:09;;;;;;;5.55;1.50;;;;;;;15.77;64.47;99142.63;8202090;28;20252;-71
2022/05/27 03:21:25;;;;;;;12.00;1.90;;;;;;;15.80;64.40;99135.72;8218102;28;20514;-72
2022/05/27 03:25:49;;;;;;;5.72;2.22;;;;;;;15.73;64.91;99130.03;8211240;28;20085;-72
2022/05/27 03:30:14;;;;;;;6.30;1.95;;;;;;;15.74;65.17;99132.44;8199709;28;20047;-72
2022/05/27 03:34:23;;;;;;;4.35;2.10;;;;;;;15.69;65.47;99112.81;8207523;28;20173;-73
2022/05/27 03:38:36;;;;;;;4.47;1.70;;;;;;;15.75;64.97;99125.06;8222499;28;20051;-72
2022/05/27 03:42:38;;;;;;;5.55;2.25;;;;;;;15.73;65.18;99119.16;8214696;28;20135;-72
2022/05/27 03:46:39;;;;;;;5.40;2.17;;;;;;;15.72;65.10;99123.00;8222917;28;20105;-73
2022/05/27 03:50:41;;;;;;;7.28;2.00;;;;;;;15.78;65.23;99111.53;8201477;28;20047;-73
2022/05/27 03:54:42;;;;;;;6.18;1.80;;;;;;;15.82;65.19;99111.66;8202781;28;20054;-72
2022/05/27 03:58:43;;;;;;;10.65;2.00;;;;;;;15.84;64.88;99104.72;8200018;28;20051;-72
2022/05/27 04:02:44;;;;;;;5.93;1.90;;;;;;;15.82;65.31;99100.75;8199086;28;20478;-71
2022/05/27 04:06:48;;;;;;;5.38;1.67;;;;;;;15.86;64.87;99112.56;8212538;28;20054;-71
2022/05/27 04:10:49;;;;;;;4.85;1.63;;;;;;;15.83;65.40;99107.78;8220713;28;20142;-72
2022/05/27 04:14:51;;;;;;;7.05;1.70;;;;;;;15.87;65.10;99103.22;8204317;28;20260;-73
2022/05/27 04:18:53;;;;;;;3.42;1.50;;;;;;;15.83;65.57;99102.34;8193737;28;20082;-72
2022/05/27 04:22:54;;;;;;;7.07;1.88;;;;;;;15.80;65.80;99097.59;8196134;28;20055;-72
2022/05/27 04:26:56;;;;;;;4.05;1.73;;;;;;;15.81;65.91;99099.19;8199013;28;20534;-72
2022/05/27 04:30:56;;;;;;;8.15;1.85;;;;;;;15.84;65.80;99093.03;8198074;28;20051;-71
2022/05/27 04:34:57;;;;;;;5.88;1.83;;;;;;;15.85;66.04;99094.63;8197873;28;20047;-72
2022/05/27 04:38:58;;;;;;;3.97;1.90;;;;;;;15.79;66.36;99080.47;8198711;28;20523;-72
2022/05/27 04:43:01;;;;;;;4.90;1.50;;;;;;;15.86;66.06;99085.34;8192877;28;20055;-72
2022/05/27 04:47:03;;;;;;;9.35;1.92;;;;;;;15.94;65.85;99087.13;8197991;28;20054;-71
2022/05/27 04:51:04;;;;;;;3.63;1.70;;;;;;;15.93;66.59;99074.63;8198122;28;20055;-72
2022/05/27 04:55:10;;;;;;;5.32;1.80;;;;;;;16.01;66.39;99079.16;8201178;28;20094;-72
2022/05/27 04:59:13;;;;;;;6.77;2.00;;;;;;;16.07;65.99;99080.50;8202567;28;20055;-71
2022/05/27 05:03:14;;;;;;;2.65;1.58;;;;;;;16.03;66.53;99074.16;8217747;28;20086;-73
2022/05/27 05:07:20;;;;;;;7.03;1.60;;;;;;;16.07;66.48;99075.06;8204089;28;20511;-73
2022/05/27 05:11:21;;;;;;;9.40;1.85;;;;;;;16.16;66.49;99080.38;8202511;29;20047;-71
2022/05/27 05:15:22;;;;;;;5.15;1.75;;;;;;;16.13;66.74;99072.88;8203382;28;20443;-72
2022/05/27 05:19:24;;;;;;;3.85;1.60;;;;;;;16.15;67.05;99070.59;8203093;28;20062;-71
2022/05/27 05:23:25;;;;;;;3.33;1.42;;;;;;;16.28;66.17;99075.66;8203462;28;20055;-71
2022/05/27 05:27:27;;;;;;;4.35;1.60;;;;;;;16.34;66.61;99063.34;8202966;28;20138;-72
2022/05/27 05:31:28;;;;;;;4.45;1.50;;;;;;;16.36;67.12;99066.53;8203039;28;20088;-71
2022/05/27 05:35:29;;;;;;;3.55;1.80;;;;;;;16.31;67.53;99064.06;8212772;28;20499;-71
2022/05/27 05:39:31;;;;;;;8.88;1.75;;;;;;;16.27;67.80;99074.09;8202117;28;20055;-72
2022/05/27 05:43:33;;;;;;;5.85;1.85;;;;;;;16.29;67.78;99070.97;8202484;28;20098;-72
2022/05/27 05:47:34;;;;;;;8.45;1.73;;;;;;;16.28;66.83;99058.53;8186851;28;20062;-71
2022/05/27 05:51:35;;;;;;;5.47;1.58;;;;;;;16.33;66.35;99061.78;8183514;28;20442;-71
2022/05/27 05:55:37;;;;;;;6.20;1.80;;;;;;;16.30;66.62;99059.75;8172321;29;20052;-72
2022/05/27 05:59:38;;;;;;;6.13;1.60;;;;;;;16.26;66.79;99061.59;8194383;28;20119;-72
2022/05/27 06:03:39;;;;;;;5.93;1.85;;;;;;;16.33;66.13;99061.78;8183714;28;20515;-73
2022/05/27 06:07:40;;;;;;;6.68;1.65;;;;;;;16.31;66.22;99058.63;8174505;29;20067;-73
2022/05/27 06:11:42;;;;;;;4.43;1.95;;;;;;;16.21;67.29;99074.66;8177344;29;20040;-72
2022/05/27 06:15:43;;;;;;;3.67;1.60;;;;;;;16.17;67.74;99085.47;8176460;28;20156;-72
2022/05/27 06:19:44;;;;;;;6.07;2.38;;;;;;;16.08;69.34;99090.25;8174575;29;20055;-72
2022/05/27 06:23:44;;;;;;;6.50;2.40;;;;;;;15.91;71.27;99102.22;8185351;28;20060;-72
2022/05/27 06:27:46;;;;;;;6.60;2.58;;;;;;;15.78;72.65;99094.41;8225718;28;20482;-71
2022/05/27 06:36:07;;;;;;;8.77;3.28;;;;;;;15.49;76.60;99096.22;8228709;28;20050;-71
2022/05/27 06:40:08;;;;;;;10.45;3.67;;;;;;;15.42;77.57;99098.72;8229091;28;20105;-71
2022/05/27 06:44:11;;;;;;;10.57;3.67;;;;;;;15.41;78.53;99097.13;8212591;28;20138;-71
2022/05/27 06:48:12;;;;;;;10.50;3.97;;;;;;;15.33;79.00;99100.78;8228048;28;20074;-71
2022/05/27 06:52:13;;;;;;;10.13;3.40;;;;;;;15.22;80.33;99094.19;8212458;28;20047;-72
2022/05/27 06:56:15;;;;;;;9.10;3.90;;;;;;;15.20;80.90;99096.44;8210427;28;20137;-74
2022/05/27 07:00:17;;;;;;;12.60;3.83;;;;;;;15.10;81.79;99091.47;8201154;28;20102;-71
2022/05/27 07:04:18;;;;;;;6.53;3.33;;;;;;;15.04;82.21;99092.81;8201680;28;20051;-72
2022/05/27 07:08:19;;;;;;;9.93;3.38;;;;;;;14.96;82.91;99091.00;8214167;28;20134;-71
2022/05/27 07:12:20;;;;;;;7.28;3.08;;;;;;;15.01;84.32;99093.50;8201669;28;20110;-72
2022/05/27 07:16:21;;;;;;;5.00;3.03;;;;;;;14.70;86.03;99099.41;8199404;28;20530;-72
2022/05/27 07:20:23;;;;;;;6.20;3.45;;;;;;;14.56;87.27;99105.16;8199227;28;20047;-72
2022/05/27 07:24:25;;;;;;;3.95;2.30;;;;;;;14.37;89.71;99115.72;8200922;28;20055;-72
2022/05/27 07:28:26;;;;;;;2.63;1.40;;;;;;;14.20;89.22;99124.00;8201194;28;20514;-71
2022/05/27 07:32:27;;;;;;;4.00;1.95;;;;;;;14.11;90.17;99126.00;8201345;28;20488;-73
2022/05/27 07:36:29;;;;;;;6.57;2.05;;;;;;;14.12;89.69;99122.13;8200175;28;20106;-71
2022/05/27 07:40:30;;;;;;;5.32;1.98;;;;;;;14.03;89.75;99129.53;8200341;28;20427;-72
2022/05/27 07:44:31;;;;;;;6.35;2.30;;;;;;;13.90;89.70;99126.78;8214337;28;20067;-72
2022/05/27 07:48:32;;;;;;;3.17;1.75;;;;;;;13.87;88.36;99132.03;8200235;28;20059;-72
2022/05/27 07:52:34;;;;;;;5.85;2.20;;;;;;;13.82;88.74;99133.03;8215285;28;20047;-72
2022/05/27 07:56:35;;;;;;;6.78;1.90;;;;;;;13.73;87.05;99137.72;8199972;28;20047;-74
2022/05/27 08:00:37;;;;;;;6.93;1.70;;;;;;;13.72;88.02;99128.00;8214048;28;20077;-72
2022/05/27 08:04:39;;;;;;;4.63;1.77;;;;;;;13.71;88.19;99123.69;8200364;28;20063;-72
2022/05/27 08:08:40;;;;;;;6.57;2.00;;;;;;;13.74;88.00;99117.63;8214417;28;20054;-73
2022/05/27 08:12:41;;;;;;;3.25;1.65;;;;;;;13.79;87.05;99120.13;8196910;28;20058;-72
2022/05/27 08:16:43;;;;;;;5.68;1.83;;;;;;;13.78;86.49;99107.69;8200749;28;20134;-71
2022/05/27 08:20:44;;;;;;;4.00;1.63;;;;;;;13.89;86.60;99098.03;8198335;28;20047;-71
2022/05/27 08:24:45;;;;;;;3.25;1.90;;;;;;;13.76;86.58;99115.34;8198463;28;20047;-72
2022/05/27 08:28:47;;;;;;;4.93;1.88;;;;;;;13.61;87.42;99115.13;8202000;28;20044;-73
2022/05/27 08:32:48;;;;;;;4.00;1.50;;;;;;;13.57;87.66;99115.00;8205573;28;20129;-71
2022/05/27 08:41:31;;;;;;;3.92;1.80;;;;;;;13.63;86.80;99105.56;8205307;28;20144;-72
2022/05/27 08:45:37;;;;;;;4.28;1.98;;;;;;;13.66;86.68;99099.44;8203834;29;20047;-73
2022/05/27 08:49:45;;;;;;;4.93;2.22;;;;;;;13.64;87.30;99112.53;8205249;28;20054;-72
2022/05/27 08:53:46;;;;;;;3.53;1.65;;;;;;;13.66;86.94;99104.88;8205489;29;20055;-72
2022/05/27 09:02:16;;;;;;;3.92;1.83;;;;;;;13.58;86.45;99108.44;8206726;28;20058;-71
2022/05/27 09:06:25;;;;;;;4.15;1.95;;;;;;;13.53;86.58;99116.78;8206157;28;20057;-73
2022/05/27 09:10:37;;;;;;;3.20;1.60;;;;;;;13.55;86.41;99119.94;8206408;28;20535;-71
2022/05/27 09:14:44;;;;;;;6.43;1.80;;;;;;;13.52;87.24;99131.47;8205838;28;20130;-71
2022/05/27 09:18:51;;;;;;;8.52;1.80;;;;;;;13.56;87.46;99137.81;8202588;28;20055;-72
2022/05/27 09:23:10;;;;;;;7.28;1.80;;;;;;;13.53;87.39;99133.06;8205273;28;20055;-72
2022/05/27 09:27:15;;;;;;;3.70;1.98;;;;;;;13.64;86.83;99126.13;8204791;28;20067;-73
2022/05/27 09:31:44;;;;;;;3.90;2.10;;;;;;;13.62;86.46;99114.81;8205333;28;20057;-72
2022/05/27 09:35:49;;;;;;;3.97;2.08;;;;;;;13.68;86.71;99129.78;8204687;29;20094;-73
2022/05/27 09:39:51;;;;;;;7.95;2.10;;;;;;;13.75;86.16;99132.75;8204082;28;20051;-72
2022/05/27 09:44:07;;;;;;;5.63;1.95;;;;;;;13.60;86.58;99122.47;8202438;28;20047;-72
2022/05/27 09:48:08;;;;;;;4.10;1.92;;;;;;;13.60;87.19;99127.91;8205860;28;20661;-72
2022/05/27 09:52:10;;;;;;;3.67;1.88;;;;;;;13.59;87.00;99120.88;8203520;28;20561;-73
2022/05/27 09:56:13;;;;;;;5.75;2.40;;;;;;;13.45;87.93;99136.59;8203964;28;20051;-72
2022/05/27 10:00:14;;;;;;;6.75;2.47;;;;;;;13.47;89.15;99134.38;8204071;28;20051;-72
2022/05/27 10:04:16;;;;;;;3.72;2.80;;;;;;;13.50;90.02;99144.56;8202769;29;20103;-72
2022/05/27 10:08:37;;;;;;;6.95;2.67;;;;;;;13.54;90.59;99140.06;8204243;28;20139;-71
2022/05/27 10:12:40;;;;;;;8.75;3.10;;;;;;;13.59;90.65;99147.25;8202280;28;20130;-72
2022/05/27 10:16:43;;;;;;;8.32;2.67;;;;;;;13.71;90.71;99150.81;8187450;28;20066;-72
2022/05/27 10:21:07;;;;;;;4.22;2.58;;;;;;;13.63;89.38;99148.97;8199030;28;20436;-71
2022/05/27 10:25:11;;;;;;;5.97;2.40;;;;;;;13.48;89.16;99130.53;8167570;29;20072;-72
2022/05/27 10:29:15;;;;;;;7.15;2.80;;;;;;;13.39;89.62;99132.47;8150756;29;20232;-72
2022/05/27 10:33:20;;;;;;;5.47;2.28;;;;;;;13.34;88.73;99127.22;8166378;29;20087;-72
2022/05/27 10:37:46;;;;;;;4.93;2.45;;;;;;;13.27;88.78;99129.69;8191076;28;20520;-72
2022/05/27 10:41:57;;;;;;;8.38;2.80;;;;;;;13.33;88.71;99125.63;8177669;29;20476;-73
2022/05/27 10:46:05;;;;;;;3.08;2.33;;;;;;;13.45;89.20;99120.31;8166323;29;20512;-73
2022/05/27 10:50:22;;;;;;;6.30;2.20;;;;;;;13.47;86.30;99126.22;8165704;29;20064;-72
2022/05/27 10:54:34;;;;;;;3.85;2.15;;;;;;;13.18;87.17;99137.03;8166376;29;20054;-71
2022/05/27 11:03:39;;;;;;;3.63;2.15;;;;;;;13.15;87.03;99133.06;8189976;28;20062;-72
2022/05/27 11:08:08;;;;;;;7.15;2.55;;;;;;;13.08;87.85;99149.78;8202470;28;20467;-71
2022/05/27 11:15:10;;;;;;;6.30;2.17;;;;;;;13.14;88.82;99141.50;8191523;28;20468;-72
2022/05/27 11:16:56;;;;;;;4.43;1.90;;;;;;;13.19;89.14;99104.16;8184001;28;20143;-73
2022/05/27 11:21:04;;;;;;;5.32;2.50;;;;;;;13.14;88.63;99098.13;8184696;29;20102;-72
2022/05/27 11:25:15;;;;;;;4.38;2.25;;;;;;;13.44;88.89;99107.88;8202266;28;20561;-72
2022/05/27 11:29:42;;;;;;;3.53;1.90;;;;;;;13.37;88.05;99107.63;8200428;28;20046;-72
2022/05/27 11:33:59;;;;;;;2.42;1.90;;;;;;;13.43;86.98;99085.38;8199435;28;20118;-72
2022/05/27 11:38:16;;;;;;;5.28;2.40;;;;;;;13.54;88.06;99085.78;8213262;28;20113;-72
2022/05/27 11:43:05;;;;;;;3.40;2.20;;;;;;;13.44;88.25;99119.53;8198494;28;20086;-72
2022/05/27 11:47:31;;;;;;;5.57;2.22;;;;;;;13.38;89.14;99092.91;8131591;29;20057;-72
2022/05/27 11:52:17;;;;;;;5.43;2.50;;;;;;;13.30;89.20;99091.03;8142602;29;20052;-76
2022/05/27 11:56:22;;;;;;;5.53;2.33;;;;;;;13.34;89.66;99105.53;8054551;29;20096;-73
2022/05/27 12:00:26;;;;;;;5.13;2.60;;;;;;;13.37;89.61;99091.34;8069006;29;20465;-72
2022/05/27 12:04:42;;;;;;;5.10;2.70;;;;;;;13.39;90.40;99097.22;8069251;29;20049;-73
2022/05/27 12:08:51;;;;;;;2.47;1.77;;;;;;;13.45;88.44;99098.63;8054150;29;20054;-72
2022/05/27 12:13:16;;;;;;;4.38;2.50;;;;;;;13.46;88.17;99105.63;8039354;29;20488;-72
2022/05/27 12:17:40;;;;;;;5.63;2.70;;;;;;;13.30;87.80;99108.13;8069678;29;20053;-72
2022/05/27 12:21:45;;;;;;;4.07;2.80;;;;;;;13.42;88.13;99077.59;8075785;29;20458;-71
2022/05/27 12:26:10;;;;;;;3.20;2.75;;;;;;;13.69;87.60;99077.09;8121199;29;20055;-72
2022/05/27 12:30:13;;;;;;;7.45;3.22;;;;;;;14.02;84.99;99062.78;8131133;29;20048;-72
2022/05/27 12:34:26;;;;;;;5.45;2.30;;;;;;;14.17;83.35;99048.63;8115838;29;20518;-74
2022/05/27 12:38:41;;;;;;;4.28;3.00;;;;;;;14.27;84.87;99053.63;8131309;29;20556;-72
2022/05/27 12:42:43;;;;;;;6.28;3.05;;;;;;;14.37;83.96;99058.69;8115586;29;20571;-72
2022/05/27 12:46:45;;;;;;;5.97;2.50;;;;;;;14.26;81.93;99052.03;8115465;29;20059;-73
2022/05/27 12:50:54;;;;;;;5.72;2.63;;;;;;;14.05;83.11;99045.84;8122749;29;20062;-71
2022/05/27 12:54:59;;;;;;;5.22;2.70;;;;;;;14.05;82.93;99026.84;8162518;29;20060;-71
2022/05/27 13:03:56;;;;;;;5.68;2.83;;;;;;;13.85;82.97;99037.38;8130574;29;20517;-72
2022/05/27 13:08:11;;;;;;;8.75;2.85;;;;;;;13.82;82.80;99021.75;8115629;29;20074;-72
2022/05/27 13:12:44;;;;;;;5.45;2.53;;;;;;;14.05;82.50;99029.56;8127956;29;20107;-71
2022/05/27 13:17:10;;;;;;;11.70;2.83;;;;;;;14.16;80.58;99022.59;8087630;29;20188;-72
2022/05/27 13:21:30;;;;;;;7.80;2.50;;;;;;;14.12;81.11;99019.72;8121175;29;20420;-71
2022/05/27 13:25:39;;;;;;;5.85;2.65;;;;;;;14.14;79.71;99011.25;8136330;29;20064;-72
2022/05/27 13:29:44;;;;;;;7.18;2.60;;;;;;;14.16;78.87;98998.13;8136067;29;20402;-73
2022/05/27 13:33:52;;;;;;;5.90;2.53;;;;;;;14.06;78.84;99004.78;8135932;29;20058;-73
2022/05/27 13:37:57;;;;;;;7.78;2.65;;;;;;;14.05;79.73;98996.97;8139415;29;20083;-73
2022/05/27 13:41:58;;;;;;;8.63;2.88;;;;;;;14.20;79.29;98999.06;8202899;28;20566;-73
2022/05/27 13:46:01;;;;;;;8.40;3.28;;;;;;;14.69;77.93;98984.47;8200421;28;20066;-73
2022/05/27 13:50:03;;;;;;;6.50;2.40;;;;;;;17.18;69.68;98971.22;8202613;28;20475;-73
2022/05/27 13:54:14;;;;;;;5.93;2.40;;;;;;;19.10;63.39;98963.97;8199361;28;20054;-72
2022/05/27 13:58:16;;;;;;;4.22;2.17;;;;;;;20.17;58.33;98958.72;8185134;28;20051;-72
2022/05/27 14:02:32;;;;;;;8.25;2.33;;;;;;;20.99;54.32;98958.31;8170478;29;20051;-71
2022/05/27 14:06:34;;;;;;;5.65;1.80;;;;;;;20.22;55.13;98952.91;8170549;29;20066;-73
2022/05/27 14:10:41;;;;;;;4.38;2.10;;;;;;;19.98;57.31;98939.75;8152571;29;20072;-72
2022/05/27 14:14:46;;;;;;;11.38;2.30;;;;;;;19.92;58.21;98938.50;8183805;28;20051;-72
2022/05/27 14:18:48;;;;;;;4.47;2.20;;;;;;;21.86;52.12;98944.69;8183860;29;20519;-71
2022/05/27 14:22:51;;;;;;;4.95;2.15;;;;;;;22.40;49.43;98945.66;8151833;29;20408;-73
2022/05/27 14:26:52;;;;;;;6.93;2.42;;;;;;;22.29;49.79;98951.13;8169224;29;20062;-72
2022/05/27 14:30:57;;;;;;;7.15;2.20;;;;;;;23.42;47.18;98928.28;8169846;29;20135;-72
2022/05/27 14:34:59;;;;;;;6.10;1.98;;;;;;;23.15;46.28;98937.03;8169493;29;20048;-72
2022/05/27 14:39:03;;;;;;;4.93;1.85;;;;;;;21.66;48.69;98946.19;8169128;29;20055;-72
2022/05/27 14:43:18;;;;;;;5.45;1.90;;;;;;;22.04;49.33;98931.84;8167040;29;20059;-72
2022/05/27 14:47:29;;;;;;;7.45;2.03;;;;;;;23.14;46.54;98940.94;8168999;29;20052;-72
2022/05/27 14:51:30;;;;;;;6.53;1.92;;;;;;;24.35;43.70;98934.97;8168875;29;20047;-73
2022/05/27 14:55:36;;;;;;;3.03;1.80;;;;;;;24.38;42.81;98932.19;8169288;29;20059;-72
2022/05/27 14:59:45;;;;;;;6.25;2.00;;;;;;;24.57;42.21;98914.31;8183504;28;20598;-73
2022/05/27 15:04:08;;;;;;;6.50;1.90;;;;;;;25.17;42.13;98901.94;8196361;29;20058;-72
2022/05/27 15:08:18;;;;;;;2.83;1.70;;;;;;;26.00;39.87;98914.41;8196434;28;20047;-73
2022/05/27 15:12:29;;;;;;;6.18;1.70;;;;;;;26.13;39.01;98901.53;8164434;28;20066;-72
2022/05/27 15:16:34;;;;;;;5.55;1.60;;;;;;;25.35;40.07;98908.06;8196110;29;20051;-72
2022/05/27 15:20:36;;;;;;;4.35;1.80;;;;;;;23.37;43.80;98920.44;8164207;28;20070;-72
2022/05/27 15:24:42;;;;;;;4.18;1.73;;;;;;;24.54;43.09;98915.09;8179847;29;20055;-74
2022/05/27 15:37:38;;;;;;;4.90;1.90;;;;;;;25.57;39.69;98919.69;8165026;29;20067;-72
2022/05/27 15:41:39;;;;;;;3.80;1.60;;;;;;;25.19;40.10;98902.31;8167140;29;20060;-73
2022/05/27 15:45:40;;;;;;;8.23;1.70;;;;;;;23.97;41.77;98898.91;8174252;28;20449;-74
2022/05/27 15:49:41;;;;;;;3.00;1.30;;;;;;;22.30;45.64;98892.97;8224522;28;20047;-73
2022/05/27 15:53:43;;;;;;;7.30;1.75;;;;;;;20.51;49.76;98888.97;8222935;28;20066;-72
2022/05/27 15:57:45;;;;;;;4.85;2.28;;;;;;;20.07;52.39;98902.63;8283961;28;20056;-73
2022/05/27 16:01:49;;;;;;;4.85;2.28;;;;;;;19.73;53.40;98899.13;8230177;28;20478;-73
2022/05/27 16:05:53;;;;;;;5.22;2.28;;;;;;;19.44;56.11;98897.19;8254065;28;20046;-73
2022/05/27 16:09:54;;;;;;;6.80;2.90;;;;;;;19.25;57.13;98900.06;8257949;28;20129;-74
2022/05/27 16:13:55;;;;;;;6.60;2.15;;;;;;;19.05;58.13;98901.34;8259635;28;20042;-73
2022/05/27 16:17:57;;;;;;;7.18;2.33;;;;;;;18.61;59.46;98899.16;8258742;28;20073;-74
2022/05/27 16:21:58;;;;;;;4.43;2.20;;;;;;;18.47;60.84;98904.34;8258714;28;20046;-72
2022/05/27 16:25:59;;;;;;;8.57;2.35;;;;;;;17.98;62.13;98901.50;8238355;28;20165;-72
2022/05/27 16:30:01;;;;;;;5.13;2.30;;;;;;;17.82;63.38;98907.06;8204072;28;20514;-73
2022/05/27 16:34:04;;;;;;;7.88;2.78;;;;;;;17.76;64.21;98914.00;8219565;28;20043;-73
2022/05/27 16:38:05;;;;;;;8.68;2.42;;;;;;;18.20;62.88;98899.97;8212975;28;20063;-72
2022/05/27 16:42:07;;;;;;;7.68;2.42;;;;;;;17.95;62.67;98916.69;8170527;29;20067;-72
2022/05/27 16:46:09;;;;;;;7.30;2.50;;;;;;;17.79;63.79;98918.72;8167059;29;20052;-73
2022/05/27 16:50:14;;;;;;;7.18;3.30;;;;;;;17.60;64.39;98910.56;8188386;28;20167;-73
2022/05/27 16:54:15;;;;;;;9.50;2.85;;;;;;;17.47;65.24;98895.44;8203760;28;20056;-72
2022/05/27 16:58:16;;;;;;;6.00;2.60;;;;;;;17.09;66.19;98913.34;8210470;28;20138;-74
2022/05/27 17:02:17;;;;;;;8.95;2.65;;;;;;;16.78;67.30;98916.13;8203696;28;20048;-73
2022/05/27 17:06:19;;;;;;;5.63;2.60;;;;;;;16.63;68.65;98916.94;8203431;28;20069;-73
2022/05/27 17:10:23;;;;;;;8.15;2.63;;;;;;;16.69;68.05;98926.44;8202956;28;20069;-73
2022/05/27 17:14:24;;;;;;;6.25;2.58;;;;;;;16.56;68.73;98922.19;8203273;28;20051;-73
2022/05/27 17:18:24;;;;;;;6.45;2.53;;;;;;;16.45;69.22;98917.25;8213388;28;20142;-73
2022/05/27 17:22:26;;;;;;;4.63;2.20;;;;;;;16.21;69.69;98917.44;8209178;28;20106;-73
2022/05/27 17:26:27;;;;;;;5.95;2.42;;;;;;;16.08;70.00;98924.06;8217029;28;20068;-72
2022/05/27 17:30:30;;;;;;;6.00;2.60;;;;;;;16.01;70.28;98924.69;8203091;28;20102;-73
2022/05/27 17:34:34;;;;;;;8.40;2.35;;;;;;;15.87;70.87;98928.94;8207906;28;20418;-72
2022/05/27 17:38:36;;;;;;;7.03;2.75;;;;;;;15.82;71.18;98921.81;8209205;28;20404;-72
2022/05/27 17:42:36;;;;;;;7.78;2.33;;;;;;;15.78;71.10;98933.75;8203143;28;20100;-72
2022/05/27 17:55:21;;;;;;;6.80;2.45;;;;;;;15.47;69.45;98959.72;8202474;29;20047;-72
2022/05/27 17:59:22;;;;;;;9.45;2.30;;;;;;;15.32;72.13;98963.16;8184371;29;20047;-72
2022/05/27 18:03:24;;;;;;;8.27;2.40;;;;;;;14.95;75.09;98975.19;8201331;28;20054;-72
2022/05/27 18:07:25;;;;;;;11.77;2.60;;;;;;;14.83;77.19;98978.69;8202138;28;20047;-73
2022/05/27 18:11:26;;;;;;;7.68;2.22;;;;;;;14.59;78.20;98962.38;8231643;28;20141;-73
2022/05/27 18:15:27;;;;;;;6.75;2.40;;;;;;;14.43;78.58;98975.84;8203409;28;20070;-71
2022/05/27 18:19:28;;;;;;;6.47;2.83;;;;;;;14.31;78.99;98973.06;8213463;28;20073;-72
2022/05/27 18:23:29;;;;;;;10.15;2.53;;;;;;;14.22;79.67;98980.50;8212092;28;20051;-71
2022/05/27 18:27:30;;;;;;;6.93;2.63;;;;;;;14.17;79.79;98994.31;8201582;28;20122;-72
2022/05/27 18:31:32;;;;;;;12.25;2.22;;;;;;;14.05;80.08;98996.97;8198365;28;20062;-72
2022/05/27 18:35:33;;;;;;;6.80;2.22;;;;;;;13.93;79.63;98995.78;8220279;28;20104;-73
2022/05/27 18:39:35;;;;;;;8.13;2.03;;;;;;;13.87;78.96;98997.13;8233078;28;20059;-72
2022/05/27 18:43:36;;;;;;;13.73;2.50;;;;;;;13.76;78.46;98995.94;8211494;28;20062;-73
2022/05/27 18:47:41;;;;;;;9.20;2.22;;;;;;;13.65;78.47;99011.03;8201023;28;20143;-73
2022/05/27 18:51:42;;;;;;;13.95;2.40;;;;;;;13.52;78.57;99017.53;8199817;28;20130;-73
2022/05/27 18:55:45;;;;;;;7.68;2.28;;;;;;;13.30;79.25;99024.03;8200407;28;20051;-73
2022/05/27 18:59:47;;;;;;;10.90;2.63;;;;;;;13.11;79.53;99040.72;8201016;28;20046;-72
2022/05/27 19:03:48;;;;;;;8.07;1.98;;;;;;;13.06;79.23;99038.16;8204763;28;20499;-72
2022/05/27 19:07:49;;;;;;;9.25;2.50;;;;;;;13.03;78.02;99057.78;8214348;28;20130;-72
2022/05/27 19:11:51;;;;;;;11.25;2.17;;;;;;;13.00;77.27;99082.84;8217067;28;20594;-71
2022/05/27 19:15:55;;;;;;;10.50;2.33;;;;;;;13.02;71.46;99069.75;8203490;28;20051;-72
2022/05/27 19:24:16;;;;;;;11.15;1.88;;;;;;;12.88;68.51;99123.38;8200930;28;20472;-72
2022/05/27 19:28:17;;;;;;;9.18;1.85;;;;;;;12.74;66.79;99128.22;8189506;28;20043;-72
2022/05/27 19:32:24;;;;;;;4.55;1.60;;;;;;;12.70;67.46;99116.41;8205065;28;20048;-71
2022/05/27 19:36:25;;;;;;;10.82;2.00;;;;;;;12.58;68.51;99102.75;8184753;28;20046;-72
2022/05/27 19:40:27;;;;;;;10.98;1.60;;;;;;;12.37;70.06;99091.78;8206817;28;20138;-72
2022/05/27 19:44:30;;;;;;;8.43;1.70;;;;;;;12.27;70.41;99084.75;8177243;29;20488;-72
2022/05/27 19:48:52;;;;;;;15.23;2.10;;;;;;;12.23;71.29;99081.09;8178834;28;20035;-72
2022/05/27 19:52:55;;;;;;;8.32;1.70;;;;;;;12.21;72.02;99083.31;8244856;28;20054;-72
2022/05/27 19:56:57;;;;;;;13.48;1.70;;;;;;;12.16;72.83;99069.19;8240341;28;20477;-72
2022/05/27 20:00:59;;;;;;;6.25;1.85;;;;;;;12.13;73.01;99086.84;8235512;28;20061;-71
2022/05/27 20:05:02;;;;;;;14.43;1.88;;;;;;;12.04;73.07;99077.94;8243592;28;20418;-72